sensor_id;sensor_type;location;lat;lon;timestamp;pressure;altitude;pressure_sealevel;temperature;humidity
74958;BME280;63741;42.624;26.276;2022-09-28T00:02:22;98575.28;;;16.86;72.23
74958;BME280;63741;42.624;26.276;2022-09-28T00:04:49;98577.88;;;16.80;71.82
74958;BME280;63741;42.624;26.276;2022-09-28T00:07:16;98573.44;;;16.87;72.15
74958;BME280;63741;42.624;26.276;2022-09-28T00:09:43;98582.75;;;16.91;72.14
74958;BME280;63741;42.624;26.276;2022-09-28T00:12:10;98584.94;;;16.87;71.75
74958;BME280;63741;42.624;26.276;2022-09-28T00:14:37;98589.28;;;16.74;72.00
74958;BME280;63741;42.624;26.276;2022-09-28T00:17:06;98592.25;;;16.79;72.19
74958;BME280;63741;42.624;26.276;2022-09-28T00:19:33;98596.38;;;16.81;71.78
74958;BME280;63741;42.624;26.276;2022-09-28T00:22:00;98600.91;;;16.81;72.53
74958;BME280;63741;42.624;26.276;2022-09-28T00:24:27;98585.91;;;16.80;72.34
74958;BME280;63741;42.624;26.276;2022-09-28T00:26:56;98593.59;;;17.04;71.41
74958;BME280;63741;42.624;26.276;2022-09-28T00:31:59;98595.81;;;17.15;71.05
74958;BME280;63741;42.624;26.276;2022-09-28T00:34:30;98591.19;;;16.65;72.64
74958;BME280;63741;42.624;26.276;2022-09-28T00:36:58;98586.78;;;16.57;72.37
74958;BME280;63741;42.624;26.276;2022-09-28T00:39:25;98593.44;;;16.38;72.99
74958;BME280;63741;42.624;26.276;2022-09-28T00:41:53;98597.19;;;16.52;72.71
74958;BME280;63741;42.624;26.276;2022-09-28T00:44:39;98593.38;;;16.47;72.76
74958;BME280;63741;42.624;26.276;2022-09-28T00:52:49;98597.19;;;16.67;71.30
74958;BME280;63741;42.624;26.276;2022-09-28T00:55:24;98597.69;;;16.33;73.86
74958;BME280;63741;42.624;26.276;2022-09-28T00:57:55;98597.81;;;16.69;72.54
74958;BME280;63741;42.624;26.276;2022-09-28T01:00:24;98607.94;;;16.59;73.54
74958;BME280;63741;42.624;26.276;2022-09-28T01:02:51;98601.38;;;16.47;74.07
74958;BME280;63741;42.624;26.276;2022-09-28T01:05:19;98607.78;;;16.23;74.43
74958;BME280;63741;42.624;26.276;2022-09-28T01:07:46;98594.47;;;16.00;75.23
74958;BME280;63741;42.624;26.276;2022-09-28T01:10:14;98597.41;;;15.90;75.38
74958;BME280;63741;42.624;26.276;2022-09-28T01:12:44;98598.09;;;15.84;75.51
74958;BME280;63741;42.624;26.276;2022-09-28T01:15:12;98590.28;;;15.82;74.86
74958;BME280;63741;42.624;26.276;2022-09-28T01:23:00;98598.13;;;15.76;75.78
74958;BME280;63741;42.624;26.276;2022-09-28T01:28:07;98594.66;;;16.36;72.54
74958;BME280;63741;42.624;26.276;2022-09-28T01:30:44;98594.66;;;16.36;73.06
74958;BME280;63741;42.624;26.276;2022-09-28T01:33:18;98594.41;;;16.46;72.03
74958;BME280;63741;42.624;26.276;2022-09-28T01:36:03;98597.59;;;16.26;72.83
74958;BME280;63741;42.624;26.276;2022-09-28T01:38:45;98589.50;;;15.97;74.34
74958;BME280;63741;42.624;26.276;2022-09-28T01:41:15;98597.41;;;15.67;74.45
74958;BME280;63741;42.624;26.276;2022-09-28T01:43:52;98602.22;;;15.63;75.10
74958;BME280;63741;42.624;26.276;2022-09-28T01:46:23;98597.78;;;15.48;75.18
74958;BME280;63741;42.624;26.276;2022-09-28T01:48:55;98590.28;;;15.51;75.25
74958;BME280;63741;42.624;26.276;2022-09-28T01:51:34;98586.97;;;15.49;75.11
74958;BME280;63741;42.624;26.276;2022-09-28T01:54:12;98582.09;;;15.53;74.86
74958;BME280;63741;42.624;26.276;2022-09-28T01:59:33;98581.22;;;15.60;74.60
74958;BME280;63741;42.624;26.276;2022-09-28T02:02:06;98588.41;;;15.60;74.11
74958;BME280;63741;42.624;26.276;2022-09-28T02:04:39;98580.75;;;15.57;74.55
74958;BME280;63741;42.624;26.276;2022-09-28T02:07:17;98574.47;;;15.81;73.74
74958;BME280;63741;42.624;26.276;2022-09-28T02:09:51;98566.47;;;15.81;73.37
74958;BME280;63741;42.624;26.276;2022-09-28T02:12:28;98559.28;;;15.81;73.21
74958;BME280;63741;42.624;26.276;2022-09-28T02:15:09;98589.31;;;15.75;73.54
74958;BME280;63741;42.624;26.276;2022-09-28T02:17:38;98586.72;;;15.67;73.82
74958;BME280;63741;42.624;26.276;2022-09-28T02:20:05;98584.50;;;15.93;72.54
74958;BME280;63741;42.624;26.276;2022-09-28T02:22:38;98590.06;;;16.07;71.93
74958;BME280;63741;42.624;26.276;2022-09-28T02:25:27;98599.66;;;16.16;71.86
74958;BME280;63741;42.624;26.276;2022-09-28T02:28:02;98591.78;;;16.23;71.62
74958;BME280;63741;42.624;26.276;2022-09-28T02:30:31;98600.69;;;15.92;72.40
74958;BME280;63741;42.624;26.276;2022-09-28T02:33:04;98596.09;;;15.86;72.92
74958;BME280;63741;42.624;26.276;2022-09-28T02:35:33;98598.59;;;16.02;71.91
74958;BME280;63741;42.624;26.276;2022-09-28T02:38:01;98601.78;;;15.52;73.68
74958;BME280;63741;42.624;26.276;2022-09-28T02:40:30;98609.81;;;15.43;74.17
74958;BME280;63741;42.624;26.276;2022-09-28T02:43:21;98623.88;;;15.29;73.69
74958;BME280;63741;42.624;26.276;2022-09-28T02:46:00;98621.63;;;15.10;74.69
74958;BME280;63741;42.624;26.276;2022-09-28T02:57:45;98618.59;;;15.13;74.79
74958;BME280;63741;42.624;26.276;2022-09-28T03:00:17;98619.66;;;15.04;75.73
74958;BME280;63741;42.624;26.276;2022-09-28T03:03:01;98613.00;;;15.00;75.25
74958;BME280;63741;42.624;26.276;2022-09-28T03:08:38;98622.81;;;14.99;75.05
74958;BME280;63741;42.624;26.276;2022-09-28T03:11:25;98614.44;;;15.19;74.44
74958;BME280;63741;42.624;26.276;2022-09-28T03:13:54;98614.28;;;15.12;74.49
74958;BME280;63741;42.624;26.276;2022-09-28T03:16:28;98613.56;;;15.26;74.47
74958;BME280;63741;42.624;26.276;2022-09-28T03:18:58;98620.22;;;15.22;74.23
74958;BME280;63741;42.624;26.276;2022-09-28T03:21:25;98617.22;;;15.25;74.54
74958;BME280;63741;42.624;26.276;2022-09-28T03:23:51;98617.44;;;15.15;74.66
74958;BME280;63741;42.624;26.276;2022-09-28T03:26:18;98608.03;;;15.36;73.64
74958;BME280;63741;42.624;26.276;2022-09-28T03:28:45;98613.47;;;15.42;73.71
74958;BME280;63741;42.624;26.276;2022-09-28T03:31:19;98612.25;;;15.53;73.02
74958;BME280;63741;42.624;26.276;2022-09-28T03:33:46;98617.25;;;15.56;72.74
74958;BME280;63741;42.624;26.276;2022-09-28T03:36:13;98618.78;;;15.82;71.77
74958;BME280;63741;42.624;26.276;2022-09-28T03:38:41;98617.66;;;15.76;71.22
74958;BME280;63741;42.624;26.276;2022-09-28T03:41:09;98622.00;;;15.38;72.50
74958;BME280;63741;42.624;26.276;2022-09-28T03:43:39;98625.66;;;15.06;72.87
74958;BME280;63741;42.624;26.276;2022-09-28T03:46:06;98625.56;;;14.75;73.17
74958;BME280;63741;42.624;26.276;2022-09-28T03:48:39;98622.78;;;14.60;75.16
74958;BME280;63741;42.624;26.276;2022-09-28T03:51:09;98626.09;;;14.62;74.59
74958;BME280;63741;42.624;26.276;2022-09-28T03:53:38;98630.78;;;14.52;75.53
74958;BME280;63741;42.624;26.276;2022-09-28T03:56:13;98626.41;;;14.67;74.44
74958;BME280;63741;42.624;26.276;2022-09-28T03:58:41;98631.59;;;14.60;75.43
74958;BME280;63741;42.624;26.276;2022-09-28T04:01:11;98631.91;;;14.65;74.66
74958;BME280;63741;42.624;26.276;2022-09-28T04:03:45;98626.44;;;14.59;74.86
74958;BME280;63741;42.624;26.276;2022-09-28T04:06:13;98624.44;;;14.61;74.90
74958;BME280;63741;42.624;26.276;2022-09-28T04:08:40;98628.56;;;14.63;74.67
74958;BME280;63741;42.624;26.276;2022-09-28T04:11:09;98624.25;;;14.46;74.33
74958;BME280;63741;42.624;26.276;2022-09-28T04:13:36;98621.91;;;14.68;74.65
74958;BME280;63741;42.624;26.276;2022-09-28T04:16:05;98625.56;;;14.75;74.47
74958;BME280;63741;42.624;26.276;2022-09-28T04:18:33;98631.53;;;14.77;73.48
74958;BME280;63741;42.624;26.276;2022-09-28T04:21:13;98624.03;;;14.88;72.67
74958;BME280;63741;42.624;26.276;2022-09-28T04:23:44;98630.47;;;15.02;72.53
74958;BME280;63741;42.624;26.276;2022-09-28T04:26:23;98627.31;;;15.07;71.56
74958;BME280;63741;42.624;26.276;2022-09-28T04:28:50;98639.47;;;15.09;71.84
74958;BME280;63741;42.624;26.276;2022-09-28T04:31:44;98629.25;;;15.13;71.38
74958;BME280;63741;42.624;26.276;2022-09-28T04:34:15;98635.59;;;15.12;71.98
74958;BME280;63741;42.624;26.276;2022-09-28T04:36:43;98646.66;;;14.93;73.64
74958;BME280;63741;42.624;26.276;2022-09-28T04:39:13;98629.69;;;14.94;73.88
74958;BME280;63741;42.624;26.276;2022-09-28T04:41:43;98645.00;;;14.91;73.97
74958;BME280;63741;42.624;26.276;2022-09-28T04:44:13;98646.53;;;15.25;72.55
74958;BME280;63741;42.624;26.276;2022-09-28T04:46:39;98655.19;;;15.27;73.30
74958;BME280;63741;42.624;26.276;2022-09-28T04:49:25;98652.88;;;15.24;73.00
74958;BME280;63741;42.624;26.276;2022-09-28T04:51:55;98661.19;;;15.21;73.37
74958;BME280;63741;42.624;26.276;2022-09-28T04:54:21;98667.78;;;15.41;72.95
74958;BME280;63741;42.624;26.276;2022-09-28T04:56:48;98671.94;;;15.44;72.88
74958;BME280;63741;42.624;26.276;2022-09-28T04:59:16;98674.56;;;15.52;72.49
74958;BME280;63741;42.624;26.276;2022-09-28T05:01:43;98677.38;;;15.67;72.34
74958;BME280;63741;42.624;26.276;2022-09-28T05:04:29;98680.09;;;15.82;71.89
74958;BME280;63741;42.624;26.276;2022-09-28T05:07:16;98680.03;;;16.21;70.06
74958;BME280;63741;42.624;26.276;2022-09-28T05:09:43;98687.47;;;16.03;71.60
74958;BME280;63741;42.624;26.276;2022-09-28T05:12:10;98686.72;;;15.94;71.83
74958;BME280;63741;42.624;26.276;2022-09-28T05:14:37;98695.09;;;15.83;72.95
74958;BME280;63741;42.624;26.276;2022-09-28T05:17:04;98682.28;;;15.78;72.98
74958;BME280;63741;42.624;26.276;2022-09-28T05:19:38;98695.16;;;15.98;72.43
74958;BME280;63741;42.624;26.276;2022-09-28T05:22:05;98696.91;;;16.13;72.32
74958;BME280;63741;42.624;26.276;2022-09-28T05:24:40;98695.13;;;16.29;72.28
74958;BME280;63741;42.624;26.276;2022-09-28T05:27:08;98689.38;;;15.94;72.60
74958;BME280;63741;42.624;26.276;2022-09-28T05:29:35;98685.03;;;15.93;72.59
74958;BME280;63741;42.624;26.276;2022-09-28T05:32:40;98696.25;;;15.80;72.11
74958;BME280;63741;42.624;26.276;2022-09-28T05:35:19;98696.13;;;16.05;70.46
74958;BME280;63741;42.624;26.276;2022-09-28T05:37:47;98700.41;;;16.14;70.36
74958;BME280;63741;42.624;26.276;2022-09-28T05:40:14;98700.06;;;16.40;69.91
74958;BME280;63741;42.624;26.276;2022-09-28T05:42:41;98685.41;;;16.36;69.75
74958;BME280;63741;42.624;26.276;2022-09-28T05:45:09;98703.31;;;16.65;68.38
74958;BME280;63741;42.624;26.276;2022-09-28T05:47:40;98701.84;;;16.85;67.57
74958;BME280;63741;42.624;26.276;2022-09-28T05:50:09;98705.75;;;17.12;67.60
74958;BME280;63741;42.624;26.276;2022-09-28T05:52:41;98712.66;;;17.22;66.53
74958;BME280;63741;42.624;26.276;2022-09-28T05:55:10;98713.09;;;17.40;66.52
74958;BME280;63741;42.624;26.276;2022-09-28T05:57:37;98715.31;;;17.36;66.79
74958;BME280;63741;42.624;26.276;2022-09-28T06:00:06;98719.09;;;17.57;66.40
74958;BME280;63741;42.624;26.276;2022-09-28T06:02:59;98725.91;;;17.44;66.68
74958;BME280;63741;42.624;26.276;2022-09-28T06:05:34;98727.38;;;17.77;66.42
74958;BME280;63741;42.624;26.276;2022-09-28T06:08:03;98737.09;;;18.14;63.61
74958;BME280;63741;42.624;26.276;2022-09-28T06:10:32;98744.28;;;18.71;61.34
74958;BME280;63741;42.624;26.276;2022-09-28T06:13:00;98743.81;;;18.89;60.78
74958;BME280;63741;42.624;26.276;2022-09-28T06:15:29;98746.75;;;18.73;62.31
74958;BME280;63741;42.624;26.276;2022-09-28T06:17:59;98749.50;;;19.07;60.66
74958;BME280;63741;42.624;26.276;2022-09-28T06:20:59;98747.28;;;19.11;61.82
74958;BME280;63741;42.624;26.276;2022-09-28T06:23:33;98744.91;;;18.73;63.40
74958;BME280;63741;42.624;26.276;2022-09-28T06:26:00;98741.72;;;18.84;62.61
74958;BME280;63741;42.624;26.276;2022-09-28T06:28:28;98750.38;;;19.14;61.18
74958;BME280;63741;42.624;26.276;2022-09-28T06:30:58;98765.72;;;19.27;60.75
74958;BME280;63741;42.624;26.276;2022-09-28T06:33:26;98759.41;;;19.07;62.20
74958;BME280;63741;42.624;26.276;2022-09-28T06:35:53;98753.06;;;19.42;62.10
74958;BME280;63741;42.624;26.276;2022-09-28T06:38:20;98755.72;;;19.77;59.89
74958;BME280;63741;42.624;26.276;2022-09-28T06:40:48;98757.63;;;19.55;63.15
74958;BME280;63741;42.624;26.276;2022-09-28T06:43:15;98753.28;;;19.48;62.23
74958;BME280;63741;42.624;26.276;2022-09-28T06:46:00;98755.91;;;19.69;62.52
74958;BME280;63741;42.624;26.276;2022-09-28T06:48:28;98755.03;;;19.62;62.37
74958;BME280;63741;42.624;26.276;2022-09-28T06:50:55;98741.97;;;19.93;62.49
74958;BME280;63741;42.624;26.276;2022-09-28T06:53:47;98752.44;;;19.82;61.88
74958;BME280;63741;42.624;26.276;2022-09-28T06:56:27;98739.31;;;20.13;59.87
74958;BME280;63741;42.624;26.276;2022-09-28T06:58:58;98743.56;;;20.49;58.98
74958;BME280;63741;42.624;26.276;2022-09-28T07:01:27;98740.94;;;20.82;58.61
74958;BME280;63741;42.624;26.276;2022-09-28T07:04:26;98740.09;;;20.95;59.23
74958;BME280;63741;42.624;26.276;2022-09-28T07:07:31;98743.19;;;20.79;59.44
74958;BME280;63741;42.624;26.276;2022-09-28T07:10:14;98738.84;;;20.84;58.69
74958;BME280;63741;42.624;26.276;2022-09-28T07:13:01;98740.88;;;21.15;56.05
74958;BME280;63741;42.624;26.276;2022-09-28T07:15:37;98733.00;;;21.20;55.88
74958;BME280;63741;42.624;26.276;2022-09-28T07:18:05;98733.00;;;21.47;55.79
74958;BME280;63741;42.624;26.276;2022-09-28T07:20:34;98734.19;;;21.71;53.78
74958;BME280;63741;42.624;26.276;2022-09-28T07:23:15;98730.91;;;21.62;55.84
74958;BME280;63741;42.624;26.276;2022-09-28T07:26:19;98735.59;;;21.80;55.78
74958;BME280;63741;42.624;26.276;2022-09-28T07:29:20;98742.44;;;21.69;54.29
74958;BME280;63741;42.624;26.276;2022-09-28T07:32:09;98748.59;;;21.90;56.00
74958;BME280;63741;42.624;26.276;2022-09-28T07:34:51;98742.81;;;21.86;55.34
74958;BME280;63741;42.624;26.276;2022-09-28T07:37:44;98745.81;;;22.16;54.82
74958;BME280;63741;42.624;26.276;2022-09-28T07:40:11;98744.59;;;22.44;55.95
74958;BME280;63741;42.624;26.276;2022-09-28T07:43:05;98742.47;;;22.53;52.83
74958;BME280;63741;42.624;26.276;2022-09-28T07:45:32;98746.00;;;22.53;55.57
74958;BME280;63741;42.624;26.276;2022-09-28T07:48:03;98735.56;;;22.63;54.57
74958;BME280;63741;42.624;26.276;2022-09-28T07:51:03;98749.94;;;22.82;53.13
74958;BME280;63741;42.624;26.276;2022-09-28T07:53:43;98749.97;;;22.76;54.81
74958;BME280;63741;42.624;26.276;2022-09-28T07:56:28;98750.19;;;23.06;54.46
74958;BME280;63741;42.624;26.276;2022-09-28T07:59:19;98750.31;;;23.36;52.49
74958;BME280;63741;42.624;26.276;2022-09-28T08:02:04;98747.69;;;23.29;52.55
74958;BME280;63741;42.624;26.276;2022-09-28T08:04:32;98745.34;;;23.14;52.90
74958;BME280;63741;42.624;26.276;2022-09-28T08:06:58;98743.22;;;23.16;50.89
74958;BME280;63741;42.624;26.276;2022-09-28T08:09:25;98741.47;;;23.47;50.49
74958;BME280;63741;42.624;26.276;2022-09-28T08:12:12;98744.00;;;23.67;51.25
74958;BME280;63741;42.624;26.276;2022-09-28T08:15:15;98747.47;;;24.04;50.06
74958;BME280;63741;42.624;26.276;2022-09-28T08:18:05;98736.25;;;24.19;50.50
74958;BME280;63741;42.624;26.276;2022-09-28T08:20:32;98739.09;;;23.94;51.75
74958;BME280;63741;42.624;26.276;2022-09-28T08:23:18;98728.63;;;24.16;48.47
74958;BME280;63741;42.624;26.276;2022-09-28T08:25:50;98734.88;;;24.28;49.09
74958;BME280;63741;42.624;26.276;2022-09-28T08:28:19;98724.31;;;24.57;48.70
74958;BME280;63741;42.624;26.276;2022-09-28T08:30:50;98717.34;;;24.49;49.55
74958;BME280;63741;42.624;26.276;2022-09-28T08:33:30;98725.06;;;24.76;50.14
74958;BME280;63741;42.624;26.276;2022-09-28T08:36:15;98732.59;;;24.97;48.46
74958;BME280;63741;42.624;26.276;2022-09-28T08:39:00;98720.00;;;24.91;47.79
74958;BME280;63741;42.624;26.276;2022-09-28T08:45:18;98735.22;;;25.15;47.91
74958;BME280;63741;42.624;26.276;2022-09-28T08:48:27;98731.47;;;25.28;46.74
74958;BME280;63741;42.624;26.276;2022-09-28T08:52:27;98732.03;;;25.30;46.80
74958;BME280;63741;42.624;26.276;2022-09-28T09:00:31;98737.66;;;25.64;45.63
74958;BME280;63741;42.624;26.276;2022-09-28T09:03:04;98741.84;;;25.95;44.15
74958;BME280;63741;42.624;26.276;2022-09-28T09:06:12;98735.22;;;26.03;44.55
74958;BME280;63741;42.624;26.276;2022-09-28T09:10:01;98723.28;;;26.44;46.43
74958;BME280;63741;42.624;26.276;2022-09-28T09:12:04;98734.47;;;26.48;45.24
74958;BME280;63741;42.624;26.276;2022-09-28T09:17:53;98728.84;;;26.66;41.73
74958;BME280;63741;42.624;26.276;2022-09-28T09:20:58;98736.78;;;26.73;42.10
74958;BME280;63741;42.624;26.276;2022-09-28T09:23:50;98736.91;;;26.20;40.97
74958;BME280;63741;42.624;26.276;2022-09-28T09:26:31;98733.06;;;26.45;38.23
74958;BME280;63741;42.624;26.276;2022-09-28T09:29:15;98737.84;;;26.55;38.31
74958;BME280;63741;42.624;26.276;2022-09-28T09:34:33;98725.19;;;26.43;38.29
74958;BME280;63741;42.624;26.276;2022-09-28T09:37:32;98726.81;;;26.44;39.77
74958;BME280;63741;42.624;26.276;2022-09-28T09:43:41;98727.19;;;26.36;38.91
74958;BME280;63741;42.624;26.276;2022-09-28T09:47:05;98729.66;;;26.38;39.23
74958;BME280;63741;42.624;26.276;2022-09-28T09:49:56;98739.56;;;26.61;39.67
74958;BME280;63741;42.624;26.276;2022-09-28T09:52:46;98732.09;;;26.68;39.70
74958;BME280;63741;42.624;26.276;2022-09-28T09:55:30;98724.13;;;26.78;37.68
74958;BME280;63741;42.624;26.276;2022-09-28T09:58:35;98715.19;;;27.11;38.52
74958;BME280;63741;42.624;26.276;2022-09-28T10:01:16;98708.44;;;27.14;37.95
74958;BME280;63741;42.624;26.276;2022-09-28T10:04:16;98713.03;;;27.52;37.40
74958;BME280;63741;42.624;26.276;2022-09-28T10:06:48;98713.28;;;27.29;38.26
74958;BME280;63741;42.624;26.276;2022-09-28T10:09:26;98704.19;;;27.40;35.56
74958;BME280;63741;42.624;26.276;2022-09-28T10:12:11;98705.13;;;27.29;36.81
74958;BME280;63741;42.624;26.276;2022-09-28T10:14:41;98706.97;;;27.45;37.25
74958;BME280;63741;42.624;26.276;2022-09-28T10:17:09;98709.56;;;27.35;35.97
74958;BME280;63741;42.624;26.276;2022-09-28T10:19:55;98704.00;;;27.25;34.06
74958;BME280;63741;42.624;26.276;2022-09-28T10:22:50;98701.91;;;27.54;33.44
74958;BME280;63741;42.624;26.276;2022-09-28T10:25:17;98705.78;;;27.19;36.11
74958;BME280;63741;42.624;26.276;2022-09-28T10:27:46;98701.84;;;27.49;33.80
74958;BME280;63741;42.624;26.276;2022-09-28T10:30:20;98699.00;;;27.38;35.16
74958;BME280;63741;42.624;26.276;2022-09-28T10:32:52;98702.44;;;27.73;34.56
74958;BME280;63741;42.624;26.276;2022-09-28T10:35:24;98703.03;;;27.75;35.00
74958;BME280;63741;42.624;26.276;2022-09-28T10:37:58;98701.59;;;28.16;34.16
74958;BME280;63741;42.624;26.276;2022-09-28T10:40:59;98693.84;;;28.57;32.68
74958;BME280;63741;42.624;26.276;2022-09-28T10:43:52;98683.94;;;28.78;32.95
74958;BME280;63741;42.624;26.276;2022-09-28T10:46:41;98685.06;;;28.44;33.22
74958;BME280;63741;42.624;26.276;2022-09-28T10:49:17;98676.53;;;28.36;32.98
74958;BME280;63741;42.624;26.276;2022-09-28T10:51:53;98674.84;;;28.62;32.73
74958;BME280;63741;42.624;26.276;2022-09-28T10:54:30;98672.19;;;28.67;31.60
74958;BME280;63741;42.624;26.276;2022-09-28T10:56:59;98675.63;;;28.30;32.25
74958;BME280;63741;42.624;26.276;2022-09-28T10:59:37;98668.38;;;28.36;32.20
74958;BME280;63741;42.624;26.276;2022-09-28T11:02:25;98676.81;;;28.39;33.11
74958;BME280;63741;42.624;26.276;2022-09-28T11:05:04;98674.28;;;28.60;34.24
74958;BME280;63741;42.624;26.276;2022-09-28T11:07:46;98667.44;;;28.89;30.69
74958;BME280;63741;42.624;26.276;2022-09-28T11:10:26;98663.94;;;28.62;30.62
74958;BME280;63741;42.624;26.276;2022-09-28T11:12:58;98662.94;;;28.68;31.09
74958;BME280;63741;42.624;26.276;2022-09-28T11:15:31;98659.53;;;28.88;31.03
74958;BME280;63741;42.624;26.276;2022-09-28T11:18:25;98667.59;;;28.73;31.55
74958;BME280;63741;42.624;26.276;2022-09-28T11:21:15;98665.69;;;28.41;32.03
74958;BME280;63741;42.624;26.276;2022-09-28T11:24:05;98656.13;;;28.70;30.02
74958;BME280;63741;42.624;26.276;2022-09-28T11:26:46;98647.72;;;28.72;30.80
74958;BME280;63741;42.624;26.276;2022-09-28T11:29:34;98643.63;;;29.07;31.30
74958;BME280;63741;42.624;26.276;2022-09-28T11:32:24;98640.38;;;28.35;31.33
74958;BME280;63741;42.624;26.276;2022-09-28T11:38:32;98640.69;;;27.68;32.07
74958;BME280;63741;42.624;26.276;2022-09-28T11:41:19;98631.63;;;27.79;31.97
74958;BME280;63741;42.624;26.276;2022-09-28T11:47:01;98629.13;;;28.59;32.98
74958;BME280;63741;42.624;26.276;2022-09-28T11:49:37;98628.75;;;28.87;29.83
74958;BME280;63741;42.624;26.276;2022-09-28T11:52:15;98629.47;;;29.10;28.62
74958;BME280;63741;42.624;26.276;2022-09-28T11:54:49;98619.56;;;28.93;30.10
74958;BME280;63741;42.624;26.276;2022-09-28T11:57:21;98622.06;;;29.00;29.97
74958;BME280;63741;42.624;26.276;2022-09-28T11:59:59;98629.91;;;29.39;28.18
74958;BME280;63741;42.624;26.276;2022-09-28T12:02:34;98619.84;;;29.50;29.69
74958;BME280;63741;42.624;26.276;2022-09-28T12:07:51;98618.28;;;28.69;30.27
74958;BME280;63741;42.624;26.276;2022-09-28T12:10:52;98608.16;;;28.96;30.65
74958;BME280;63741;42.624;26.276;2022-09-28T12:13:43;98602.38;;;29.40;29.60
74958;BME280;63741;42.624;26.276;2022-09-28T12:16:36;98601.19;;;29.89;28.13
74958;BME280;63741;42.624;26.276;2022-09-28T12:22:54;98594.19;;;29.40;28.25
74958;BME280;63741;42.624;26.276;2022-09-28T12:25:30;98601.72;;;29.18;28.32
74958;BME280;63741;42.624;26.276;2022-09-28T12:28:10;98593.16;;;29.52;30.26
74958;BME280;63741;42.624;26.276;2022-09-28T12:30:40;98592.47;;;30.07;29.45
74958;BME280;63741;42.624;26.276;2022-09-28T12:33:14;98590.56;;;30.13;27.84
74958;BME280;63741;42.624;26.276;2022-09-28T12:47:14;98591.88;;;29.69;28.84
74958;BME280;63741;42.624;26.276;2022-09-28T12:55:51;98577.53;;;27.78;31.32
74958;BME280;63741;42.624;26.276;2022-09-28T13:01:20;98575.09;;;28.78;29.69
74958;BME280;63741;42.624;26.276;2022-09-28T13:11:39;98572.03;;;30.10;28.40
74958;BME280;63741;42.624;26.276;2022-09-28T13:14:22;98579.06;;;29.80;28.16
74958;BME280;63741;42.624;26.276;2022-09-28T13:17:12;98569.22;;;29.69;27.14
74958;BME280;63741;42.624;26.276;2022-09-28T13:19:50;98578.28;;;30.00;29.24
74958;BME280;63741;42.624;26.276;2022-09-28T13:25:11;98572.28;;;29.83;26.51
74958;BME280;63741;42.624;26.276;2022-09-28T13:27:45;98581.53;;;29.87;29.68
74958;BME280;63741;42.624;26.276;2022-09-28T13:30:15;98580.47;;;30.08;30.34
74958;BME280;63741;42.624;26.276;2022-09-28T13:32:45;98573.66;;;30.01;28.51
74958;BME280;63741;42.624;26.276;2022-09-28T13:35:15;98577.16;;;29.91;26.10
74958;BME280;63741;42.624;26.276;2022-09-28T13:37:46;98580.47;;;30.03;26.08
74958;BME280;63741;42.624;26.276;2022-09-28T13:40:14;98577.72;;;29.98;26.45
74958;BME280;63741;42.624;26.276;2022-09-28T13:58:10;98568.94;;;29.55;26.13
74958;BME280;63741;42.624;26.276;2022-09-28T14:00:48;98560.00;;;29.75;25.13
74958;BME280;63741;42.624;26.276;2022-09-28T14:08:37;98569.22;;;29.59;26.82
74958;BME280;63741;42.624;26.276;2022-09-28T14:11:29;98570.63;;;29.82;24.89
74958;BME280;63741;42.624;26.276;2022-09-28T14:16:40;98566.41;;;29.38;24.34
74958;BME280;63741;42.624;26.276;2022-09-28T14:24:29;98562.69;;;28.97;24.73
74958;BME280;63741;42.624;26.276;2022-09-28T14:29:37;98570.63;;;29.04;26.03
74958;BME280;63741;42.624;26.276;2022-09-28T14:34:37;98572.16;;;28.84;25.15
74958;BME280;63741;42.624;26.276;2022-09-28T14:48:52;98582.03;;;28.58;26.18
74958;BME280;63741;42.624;26.276;2022-09-28T14:53:53;98577.81;;;28.35;27.22
74958;BME280;63741;42.624;26.276;2022-09-28T14:56:21;98573.38;;;28.34;26.62
74958;BME280;63741;42.624;26.276;2022-09-28T14:58:53;98576.19;;;28.39;26.13
74958;BME280;63741;42.624;26.276;2022-09-28T15:01:21;98578.13;;;28.44;26.14
74958;BME280;63741;42.624;26.276;2022-09-28T15:03:53;98573.47;;;28.39;25.61
74958;BME280;63741;42.624;26.276;2022-09-28T15:06:22;98584.75;;;28.53;26.00
74958;BME280;63741;42.624;26.276;2022-09-28T15:08:48;98579.56;;;28.25;25.75
74958;BME280;63741;42.624;26.276;2022-09-28T15:11:21;98585.91;;;28.03;27.24
74958;BME280;63741;42.624;26.276;2022-09-28T15:13:49;98589.13;;;27.95;26.87
74958;BME280;63741;42.624;26.276;2022-09-28T15:16:22;98583.19;;;28.03;27.03
74958;BME280;63741;42.624;26.276;2022-09-28T15:21:42;98584.38;;;27.85;29.66
74958;BME280;63741;42.624;26.276;2022-09-28T15:24:54;98587.28;;;27.52;30.45
74958;BME280;63741;42.624;26.276;2022-09-28T15:27:37;98585.28;;;27.69;30.51
74958;BME280;63741;42.624;26.276;2022-09-28T15:30:24;98586.75;;;27.55;31.54
74958;BME280;63741;42.624;26.276;2022-09-28T15:32:55;98596.13;;;27.20;31.79
74958;BME280;63741;42.624;26.276;2022-09-28T15:35:47;98593.47;;;27.25;31.82
74958;BME280;63741;42.624;26.276;2022-09-28T15:38:15;98597.72;;;26.99;31.40
74958;BME280;63741;42.624;26.276;2022-09-28T15:40:43;98599.13;;;27.02;31.75
74958;BME280;63741;42.624;26.276;2022-09-28T15:43:28;98599.03;;;26.96;31.00
74958;BME280;63741;42.624;26.276;2022-09-28T15:46:18;98599.88;;;26.97;32.09
74958;BME280;63741;42.624;26.276;2022-09-28T15:48:53;98600.19;;;26.62;34.63
74958;BME280;63741;42.624;26.276;2022-09-28T15:51:22;98593.34;;;26.26;35.88
74958;BME280;63741;42.624;26.276;2022-09-28T15:54:23;98598.06;;;26.02;37.76
74958;BME280;63741;42.624;26.276;2022-09-28T15:56:53;98611.03;;;25.83;38.60
74958;BME280;63741;42.624;26.276;2022-09-28T16:02:17;98609.06;;;25.26;39.61
74958;BME280;63741;42.624;26.276;2022-09-28T16:07:19;98612.59;;;25.03;40.76
74958;BME280;63741;42.624;26.276;2022-09-28T16:10:00;98606.41;;;24.79;40.21